Time;durP1;ratioP1;P1;durP2;ratioP2;P2;SDS_P1;SDS_P2;PMS_P1;PMS_P2;Temp;Humidity;BMP_temperature;BMP_pressure;BME280_temperature;BME280_humidity;BME280_pressure;Samples;Min_cycle;Max_cycle;Signal;HPM_P1;HPM_P2
2023/05/25 00:00:14;;;;;;;7.33;3.90;;;;;;;;;;5141904;27;20486;-77
2023/05/25 00:02:43;;;;;;;6.20;3.77;;;;;;;;;;5139643;27;20454;-76
2023/05/25 00:05:10;;;;;;;5.10;4.00;;;;;;;;;;5139735;27;20505;-76
2023/05/25 00:07:39;;;;;;;7.60;3.97;;;;;;;;;;5138433;27;20964;-75
2023/05/25 00:10:07;;;;;;;7.83;5.20;;;;;;;;;;5139479;27;20532;-76
2023/05/25 00:12:38;;;;;;;6.17;3.77;;;;;;;;;;5139994;27;20449;-76
2023/05/25 00:15:06;;;;;;;13.70;4.10;;;;;;;;;;5139808;27;20458;-77
2023/05/25 00:17:36;;;;;;;6.17;4.03;;;;;;;;;;5139619;27;20437;-77
2023/05/25 00:20:08;;;;;;;8.30;5.47;;;;;;;;;;5127194;27;20720;-76
2023/05/25 00:22:36;;;;;;;7.20;4.00;;;;;;;;;;5118697;28;20458;-77
2023/05/25 00:25:06;;;;;;;10.43;4.67;;;;;;;;;;5118438;28;20475;-77
2023/05/25 00:27:34;;;;;;;5.10;3.90;;;;;;;;;;5119147;28;20534;-76
2023/05/25 00:30:02;;;;;;;6.20;4.27;;;;;;;;;;5119792;28;20459;-75
2023/05/25 00:32:29;;;;;;;7.97;4.30;;;;;;;;;;5123557;28;20446;-76
2023/05/25 00:34:59;;;;;;;6.37;3.90;;;;;;;;;;5120864;28;20926;-75
2023/05/25 00:37:27;;;;;;;5.83;4.00;;;;;;;;;;5120086;27;20450;-76
2023/05/25 00:39:57;;;;;;;8.37;3.57;;;;;;;;;;5120022;28;20481;-77
2023/05/25 00:42:26;;;;;;;10.10;4.93;;;;;;;;;;5120985;28;20542;-75
2023/05/25 00:44:54;;;;;;;6.30;3.90;;;;;;;;;;5119916;28;20467;-77
2023/05/25 00:47:21;;;;;;;10.40;4.40;;;;;;;;;;5119850;28;20434;-75
2023/05/25 00:49:49;;;;;;;6.90;4.00;;;;;;;;;;5120655;28;20470;-76
2023/05/25 00:52:16;;;;;;;6.30;4.43;;;;;;;;;;5124364;28;20874;-76
2023/05/25 00:54:45;;;;;;;8.30;4.20;;;;;;;;;;5129203;28;20446;-76
2023/05/25 00:57:15;;;;;;;6.50;4.83;;;;;;;;;;5134306;28;20423;-75
2023/05/25 00:59:47;;;;;;;8.70;4.97;;;;;;;;;;5127446;28;20462;-76
2023/05/25 01:02:16;;;;;;;6.30;4.17;;;;;;;;;;5129840;28;20542;-76
2023/05/25 01:04:51;;;;;;;9.23;4.47;;;;;;;;;;5129131;28;20832;-75
2023/05/25 01:07:20;;;;;;;7.10;4.30;;;;;;;;;;5129395;28;20451;-76
2023/05/25 01:09:49;;;;;;;5.90;4.07;;;;;;;;;;5127961;28;20534;-75
2023/05/25 01:12:17;;;;;;;8.03;4.10;;;;;;;;;;5122494;28;21017;-75
2023/05/25 01:14:47;;;;;;;10.73;4.33;;;;;;;;;;5123053;28;20474;-76
2023/05/25 01:17:15;;;;;;;12.10;4.60;;;;;;;;;;5126165;28;20530;-75
2023/05/25 01:19:44;;;;;;;7.30;4.27;;;;;;;;;;5130124;28;20470;-76
2023/05/25 01:22:16;;;;;;;6.73;4.30;;;;;;;;;;5131156;28;20454;-75
2023/05/25 01:24:45;;;;;;;5.90;4.43;;;;;;;;;;5128349;28;20471;-76
2023/05/25 01:27:14;;;;;;;6.20;4.33;;;;;;;;;;5117737;28;20475;-76
2023/05/25 01:29:44;;;;;;;4.50;4.10;;;;;;;;;;5114937;28;20471;-76
2023/05/25 01:32:12;;;;;;;7.73;3.73;;;;;;;;;;5114679;27;20473;-76
2023/05/25 01:34:40;;;;;;;10.93;4.70;;;;;;;;;;5113813;28;20447;-76
2023/05/25 01:37:08;;;;;;;9.30;5.10;;;;;;;;;;5113751;28;20950;-76
2023/05/25 01:39:36;;;;;;;6.10;4.17;;;;;;;;;;5113584;28;20526;-77
2023/05/25 01:42:04;;;;;;;7.07;4.20;;;;;;;;;;5113485;28;20927;-76
2023/05/25 01:44:32;;;;;;;8.27;4.30;;;;;;;;;;5113267;28;20517;-75
2023/05/25 01:47:04;;;;;;;7.93;5.10;;;;;;;;;;5113844;28;20545;-77
2023/05/25 01:49:35;;;;;;;7.60;3.93;;;;;;;;;;5114501;28;20447;-77
2023/05/25 01:52:08;;;;;;;9.20;4.40;;;;;;;;;;5113610;28;20454;-76
2023/05/25 01:54:39;;;;;;;8.77;4.43;;;;;;;;;;5113575;28;20454;-76
2023/05/25 01:57:08;;;;;;;4.10;3.80;;;;;;;;;;5113497;28;20446;-77
2023/05/25 01:59:39;;;;;;;7.63;4.20;;;;;;;;;;5113792;28;20457;-76
2023/05/25 02:02:07;;;;;;;9.60;4.63;;;;;;;;;;5113821;28;20446;-75
2023/05/25 02:04:39;;;;;;;5.77;3.80;;;;;;;;;;5112997;28;20508;-78
2023/05/25 02:07:07;;;;;;;8.73;4.40;;;;;;;;;;5114764;28;20478;-77
2023/05/25 02:09:35;;;;;;;5.70;4.43;;;;;;;;;;5114053;28;21004;-78
2023/05/25 02:12:05;;;;;;;8.23;4.87;;;;;;;;;;5114835;28;20971;-76
2023/05/25 02:14:32;;;;;;;8.07;4.57;;;;;;;;;;5115535;28;20453;-75
2023/05/25 02:17:03;;;;;;;5.90;4.30;;;;;;;;;;5114496;28;20432;-76
2023/05/25 02:19:30;;;;;;;7.83;4.60;;;;;;;;;;5121727;27;20476;-75
2023/05/25 02:21:58;;;;;;;6.33;4.30;;;;;;;;;;5134342;27;20449;-76
2023/05/25 02:24:26;;;;;;;11.07;5.07;;;;;;;;;;5134018;27;20765;-77
2023/05/25 02:26:53;;;;;;;7.80;4.87;;;;;;;;;;5134582;27;20454;-76
2023/05/25 02:29:23;;;;;;;5.70;4.03;;;;;;;;;;5134387;27;20450;-76
2023/05/25 02:31:51;;;;;;;7.30;4.40;;;;;;;;;;5134492;27;20454;-77
2023/05/25 02:34:18;;;;;;;7.63;4.47;;;;;;;;;;5135366;27;20450;-76
2023/05/25 02:36:46;;;;;;;6.13;4.40;;;;;;;;;;5135297;27;20430;-78
2023/05/25 02:39:13;;;;;;;7.77;4.60;;;;;;;;;;5134223;27;20450;-76
2023/05/25 02:41:41;;;;;;;8.80;4.33;;;;;;;;;;5137804;27;20445;-76
2023/05/25 02:44:09;;;;;;;10.53;5.60;;;;;;;;;;5137811;27;20446;-77
2023/05/25 02:46:38;;;;;;;10.30;4.10;;;;;;;;;;5137085;27;20470;-77
2023/05/25 02:49:06;;;;;;;7.57;5.03;;;;;;;;;;5137206;27;20435;-78
2023/05/25 02:51:33;;;;;;;7.27;5.03;;;;;;;;;;5138179;27;20469;-76
2023/05/25 02:54:04;;;;;;;7.07;4.93;;;;;;;;;;5139886;27;20436;-75
2023/05/25 02:56:32;;;;;;;8.23;5.20;;;;;;;;;;5139726;27;20442;-75
2023/05/25 02:59:03;;;;;;;9.87;5.20;;;;;;;;;;5139876;27;20499;-76
2023/05/25 03:01:31;;;;;;;5.50;4.70;;;;;;;;;;5138496;27;20458;-77
2023/05/25 03:04:02;;;;;;;8.77;5.17;;;;;;;;;;5140049;27;20474;-77
2023/05/25 03:06:30;;;;;;;8.47;5.00;;;;;;;;;;5142859;27;20623;-75
2023/05/25 03:08:57;;;;;;;9.10;5.20;;;;;;;;;;5138194;27;20427;-76
2023/05/25 03:11:25;;;;;;;7.23;5.07;;;;;;;;;;5141990;27;20545;-74
2023/05/25 03:13:53;;;;;;;8.47;4.73;;;;;;;;;;5143185;27;20513;-76
2023/05/25 03:16:22;;;;;;;5.70;4.63;;;;;;;;;;5142218;27;20438;-76
2023/05/25 03:18:49;;;;;;;5.63;4.70;;;;;;;;;;5137440;27;20482;-77
2023/05/25 03:21:22;;;;;;;8.23;5.43;;;;;;;;;;5121588;28;20861;-76
2023/05/25 03:23:50;;;;;;;7.47;4.80;;;;;;;;;;5126944;28;20480;-77
2023/05/25 03:26:18;;;;;;;7.87;5.00;;;;;;;;;;5129427;28;20478;-76
2023/05/25 03:28:46;;;;;;;8.40;4.60;;;;;;;;;;5130714;28;20458;-75
2023/05/25 03:31:13;;;;;;;7.93;5.00;;;;;;;;;;5131213;28;20473;-77
2023/05/25 03:33:41;;;;;;;11.20;5.50;;;;;;;;;;5132990;28;20546;-75
2023/05/25 03:36:08;;;;;;;13.20;5.93;;;;;;;;;;5134880;28;20442;-76
2023/05/25 03:38:37;;;;;;;5.80;4.90;;;;;;;;;;5133461;28;20423;-76
2023/05/25 03:41:06;;;;;;;11.17;5.47;;;;;;;;;;5127819;28;20531;-75
2023/05/25 03:43:33;;;;;;;8.37;5.20;;;;;;;;;;5117555;28;20649;-76
2023/05/25 03:46:01;;;;;;;7.50;5.43;;;;;;;;;;5117973;28;20465;-77
2023/05/25 03:48:29;;;;;;;9.43;5.37;;;;;;;;;;5119980;28;20451;-77
2023/05/25 03:50:57;;;;;;;10.00;5.50;;;;;;;;;;5118966;28;21001;-76
2023/05/25 03:53:25;;;;;;;10.10;5.63;;;;;;;;;;5116340;28;20458;-75
2023/05/25 03:55:57;;;;;;;6.33;4.90;;;;;;;;;;5117183;28;20443;-77
2023/05/25 03:58:25;;;;;;;7.63;5.33;;;;;;;;;;5116343;28;20949;-76
2023/05/25 04:00:55;;;;;;;8.30;5.83;;;;;;;;;;5115843;28;20978;-77
2023/05/25 04:03:28;;;;;;;9.20;5.60;;;;;;;;;;5117020;27;20458;-77
2023/05/25 04:05:57;;;;;;;11.70;6.87;;;;;;;;;;5116134;28;20560;-76
2023/05/25 04:08:27;;;;;;;7.57;5.80;;;;;;;;;;5116458;28;20938;-76
2023/05/25 04:11:01;;;;;;;9.33;5.70;;;;;;;;;;5116134;28;20473;-77
2023/05/25 04:13:29;;;;;;;9.93;5.67;;;;;;;;;;5116069;28;20458;-77
2023/05/25 04:15:57;;;;;;;11.37;6.60;;;;;;;;;;5116386;28;20511;-77
2023/05/25 04:18:25;;;;;;;10.43;6.60;;;;;;;;;;5116086;28;20474;-77
2023/05/25 04:20:56;;;;;;;8.73;6.10;;;;;;;;;;5135495;27;20537;-76
2023/05/25 04:23:26;;;;;;;11.80;5.87;;;;;;;;;;5136499;27;20468;-76
2023/05/25 04:25:57;;;;;;;8.80;6.30;;;;;;;;;;5137484;27;20470;-76
2023/05/25 04:28:28;;;;;;;12.37;6.90;;;;;;;;;;5138778;27;20449;-76
2023/05/25 04:30:56;;;;;;;9.50;6.03;;;;;;;;;;5138536;27;20454;-77
2023/05/25 04:33:28;;;;;;;12.03;6.40;;;;;;;;;;5137762;27;20449;-76
2023/05/25 04:35:57;;;;;;;10.00;6.30;;;;;;;;;;5137472;27;20510;-78
2023/05/25 04:38:31;;;;;;;12.93;7.00;;;;;;;;;;5137708;27;20536;-76
2023/05/25 04:41:00;;;;;;;9.73;5.93;;;;;;;;;;5137387;27;20465;-75
2023/05/25 04:43:30;;;;;;;12.50;6.23;;;;;;;;;;5136245;27;20528;-77
2023/05/25 04:45:58;;;;;;;10.23;6.30;;;;;;;;;;5136495;27;20512;-76
2023/05/25 04:48:27;;;;;;;8.33;5.73;;;;;;;;;;5135696;27;20450;-77
2023/05/25 04:50:56;;;;;;;11.83;7.30;;;;;;;;;;5134979;27;20879;-76
2023/05/25 04:53:24;;;;;;;7.83;7.03;;;;;;;;;;5135758;27;20509;-75
2023/05/25 04:55:53;;;;;;;9.43;7.27;;;;;;;;;;5134673;27;20442;-77
2023/05/25 04:58:21;;;;;;;10.20;5.60;;;;;;;;;;5135294;27;20452;-76
2023/05/25 05:00:51;;;;;;;10.13;6.63;;;;;;;;;;5135008;27;21240;-76
2023/05/25 05:03:18;;;;;;;7.53;5.83;;;;;;;;;;5134539;27;20450;-77
2023/05/25 05:05:47;;;;;;;11.80;6.50;;;;;;;;;;5135520;27;20477;-78
2023/05/25 05:08:17;;;;;;;7.97;6.27;;;;;;;;;;5134895;27;20461;-76
2023/05/25 05:10:45;;;;;;;8.17;7.27;;;;;;;;;;5134771;27;20458;-78
2023/05/25 05:13:12;;;;;;;11.50;6.83;;;;;;;;;;5135462;27;20442;-77
2023/05/25 05:15:40;;;;;;;11.30;6.90;;;;;;;;;;5135238;27;20441;-77
2023/05/25 05:18:13;;;;;;;14.93;7.87;;;;;;;;;;5135254;27;20540;-77
2023/05/25 05:20:41;;;;;;;9.80;6.40;;;;;;;;;;5117733;27;20455;-76
2023/05/25 05:23:09;;;;;;;9.77;6.90;;;;;;;;;;5114256;28;20530;-78
2023/05/25 05:25:37;;;;;;;13.33;6.63;;;;;;;;;;5114387;28;20470;-76
2023/05/25 05:28:05;;;;;;;10.80;7.00;;;;;;;;;;5114717;28;20478;-78
2023/05/25 05:30:33;;;;;;;7.97;6.20;;;;;;;;;;5114258;28;20486;-77
2023/05/25 05:33:01;;;;;;;8.90;6.00;;;;;;;;;;5115100;28;20459;-77
2023/05/25 05:35:31;;;;;;;11.87;6.43;;;;;;;;;;5115449;28;20451;-78
2023/05/25 05:37:59;;;;;;;8.63;6.10;;;;;;;;;;5114868;27;20457;-75
2023/05/25 05:40:27;;;;;;;13.70;7.70;;;;;;;;;;5115028;28;20512;-78
2023/05/25 05:42:54;;;;;;;12.47;6.97;;;;;;;;;;5116353;28;20435;-77
2023/05/25 05:45:22;;;;;;;9.60;6.33;;;;;;;;;;5114752;28;20436;-77
2023/05/25 05:47:50;;;;;;;9.50;7.00;;;;;;;;;;5114983;28;20481;-77
2023/05/25 05:50:17;;;;;;;11.73;6.73;;;;;;;;;;5114575;28;20477;-76
2023/05/25 05:52:47;;;;;;;13.10;6.80;;;;;;;;;;5114743;28;20850;-77
2023/05/25 05:55:15;;;;;;;13.20;6.53;;;;;;;;;;5115340;28;20449;-78
2023/05/25 05:57:42;;;;;;;11.23;6.63;;;;;;;;;;5115086;28;20447;-76
2023/05/25 06:00:11;;;;;;;9.77;7.33;;;;;;;;;;5115118;28;20477;-78
2023/05/25 06:02:41;;;;;;;11.73;7.00;;;;;;;;;;5115119;28;20458;-77
2023/05/25 06:05:09;;;;;;;12.63;7.13;;;;;;;;;;5115297;28;20427;-75
2023/05/25 06:07:37;;;;;;;13.10;7.43;;;;;;;;;;5114502;28;20554;-78
2023/05/25 06:10:06;;;;;;;11.00;6.40;;;;;;;;;;5124966;28;20461;-76
2023/05/25 06:12:34;;;;;;;11.73;6.77;;;;;;;;;;5132943;28;20454;-77
2023/05/25 06:15:02;;;;;;;8.63;6.20;;;;;;;;;;5132635;28;20982;-76
2023/05/25 06:17:30;;;;;;;11.37;7.40;;;;;;;;;;5130549;28;20518;-77
2023/05/25 06:19:58;;;;;;;11.20;6.90;;;;;;;;;;5140104;27;20457;-76
2023/05/25 06:22:27;;;;;;;10.30;6.40;;;;;;;;;;5150844;27;20457;-77
2023/05/25 06:24:55;;;;;;;14.67;7.37;;;;;;;;;;5153790;27;20458;-76
2023/05/25 06:27:24;;;;;;;11.80;7.70;;;;;;;;;;5154294;27;20469;-76
2023/05/25 06:29:52;;;;;;;13.80;7.70;;;;;;;;;;5153892;27;20492;-76
2023/05/25 06:32:19;;;;;;;11.83;6.97;;;;;;;;;;5154451;27;20534;-76
2023/05/25 06:34:47;;;;;;;10.57;6.80;;;;;;;;;;5150206;27;20433;-77
2023/05/25 06:37:15;;;;;;;9.47;7.17;;;;;;;;;;5138300;27;20847;-77
2023/05/25 06:39:43;;;;;;;10.43;6.97;;;;;;;;;;5134741;27;20497;-77
2023/05/25 06:42:12;;;;;;;11.07;7.30;;;;;;;;;;5135266;27;20450;-76
2023/05/25 06:44:41;;;;;;;8.83;6.93;;;;;;;;;;5134165;27;20488;-78
2023/05/25 06:47:10;;;;;;;11.50;7.00;;;;;;;;;;5134778;27;20476;-78
2023/05/25 06:49:38;;;;;;;10.20;7.13;;;;;;;;;;5134240;27;20474;-76
2023/05/25 06:52:15;;;;;;;11.33;7.53;;;;;;;;;;5133790;27;20434;-76
2023/05/25 06:54:42;;;;;;;15.53;7.70;;;;;;;;;;5133496;27;20476;-77
2023/05/25 06:57:11;;;;;;;10.63;7.77;;;;;;;;;;5133706;27;20491;-76
2023/05/25 06:59:39;;;;;;;14.70;7.57;;;;;;;;;;5133978;27;20466;-78
2023/05/25 07:02:09;;;;;;;15.63;8.20;;;;;;;;;;5133750;27;20460;-78
2023/05/25 07:04:38;;;;;;;12.53;7.63;;;;;;;;;;5135936;27;20450;-76
2023/05/25 07:07:08;;;;;;;14.00;7.50;;;;;;;;;;5137992;27;20477;-78
2023/05/25 07:09:48;;;;;;;12.07;7.43;;;;;;;;;;5138070;27;20469;-76
2023/05/25 07:12:20;;;;;;;8.93;6.90;;;;;;;;;;5137796;27;20476;-77
2023/05/25 07:14:48;;;;;;;15.60;8.23;;;;;;;;;;5137196;27;20441;-76
2023/05/25 07:17:17;;;;;;;13.43;7.70;;;;;;;;;;5137729;27;20441;-76
2023/05/25 07:19:49;;;;;;;13.13;8.40;;;;;;;;;;5138388;27;20529;-77
2023/05/25 07:22:18;;;;;;;10.63;8.77;;;;;;;;;;5139304;27;20450;-77
2023/05/25 07:24:46;;;;;;;10.20;8.13;;;;;;;;;;5139311;27;20462;-77
2023/05/25 07:27:14;;;;;;;13.03;8.13;;;;;;;;;;5140123;27;20474;-78
2023/05/25 07:29:42;;;;;;;11.17;7.90;;;;;;;;;;5137082;27;20565;-76
2023/05/25 07:32:10;;;;;;;12.87;7.90;;;;;;;;;;5140298;27;20452;-77
2023/05/25 07:34:39;;;;;;;9.80;7.17;;;;;;;;;;5136800;27;21088;-76
2023/05/25 07:37:06;;;;;;;12.33;8.40;;;;;;;;;;5138554;27;20434;-77
2023/05/25 07:39:34;;;;;;;10.87;7.73;;;;;;;;;;5143047;27;20446;-77
2023/05/25 07:42:02;;;;;;;10.57;7.67;;;;;;;;;;5146843;27;20434;-76
2023/05/25 07:44:29;;;;;;;11.60;8.17;;;;;;;;;;5145359;27;20495;-77
2023/05/25 07:47:00;;;;;;;10.23;7.67;;;;;;;;;;5144737;27;20499;-77
2023/05/25 07:49:28;;;;;;;10.60;7.97;;;;;;;;;;5142453;27;20438;-77
2023/05/25 07:51:58;;;;;;;10.83;8.20;;;;;;;;;;5143720;27;21005;-77
2023/05/25 07:54:26;;;;;;;19.80;7.57;;;;;;;;;;5141595;27;20457;-77
2023/05/25 07:56:54;;;;;;;13.20;8.20;;;;;;;;;;5143748;28;20502;-77
2023/05/25 07:59:25;;;;;;;9.80;7.83;;;;;;;;;;5143468;27;20484;-77
2023/05/25 08:01:53;;;;;;;11.60;7.80;;;;;;;;;;5141087;27;20465;-76
2023/05/25 08:04:21;;;;;;;13.80;8.00;;;;;;;;;;5135092;27;20462;-76
2023/05/25 08:06:49;;;;;;;15.40;8.07;;;;;;;;;;5141384;27;20497;-77
2023/05/25 08:09:18;;;;;;;10.43;7.70;;;;;;;;;;5139474;27;20865;-77
2023/05/25 08:11:46;;;;;;;9.83;7.70;;;;;;;;;;5136115;27;20509;-77
2023/05/25 08:14:14;;;;;;;11.43;7.83;;;;;;;;;;5137001;27;20854;-77
2023/05/25 08:16:42;;;;;;;14.67;8.30;;;;;;;;;;5136779;27;20925;-77
2023/05/25 08:19:10;;;;;;;12.80;8.60;;;;;;;;;;5136396;27;20446;-78
2023/05/25 08:21:39;;;;;;;13.57;8.67;;;;;;;;;;5136267;27;20810;-75
2023/05/25 08:24:08;;;;;;;9.20;8.30;;;;;;;;;;5135340;27;20466;-78
2023/05/25 08:26:51;;;;;;;11.30;8.50;;;;;;;;;;5123063;27;20495;-78
2023/05/25 08:29:19;;;;;;;9.67;8.00;;;;;;;;;;5136963;28;20517;-77
2023/05/25 08:31:48;;;;;;;14.10;8.80;;;;;;;;;;5140370;27;20442;-77
2023/05/25 08:34:16;;;;;;;12.43;9.17;;;;;;;;;;5137998;27;20438;-76
2023/05/25 08:36:44;;;;;;;13.20;7.97;;;;;;;;;;5140181;27;20434;-77
2023/05/25 08:39:12;;;;;;;9.47;8.57;;;;;;;;;;5141811;27;20468;-76
2023/05/25 08:41:42;;;;;;;13.37;8.90;;;;;;;;;;5134811;27;20462;-76
2023/05/25 08:44:13;;;;;;;10.57;8.77;;;;;;;;;;5137571;27;20917;-76
2023/05/25 08:46:40;;;;;;;10.20;8.53;;;;;;;;;;5140106;27;20466;-78
2023/05/25 08:49:10;;;;;;;11.40;8.77;;;;;;;;;;5148835;27;20418;-76
2023/05/25 08:51:38;;;;;;;12.70;9.20;;;;;;;;;;5130560;27;20478;-76
2023/05/25 08:54:10;;;;;;;13.03;9.33;;;;;;;;;;5139670;27;20952;-78
2023/05/25 08:56:42;;;;;;;11.33;8.37;;;;;;;;;;5120885;28;20423;-77
2023/05/25 08:59:15;;;;;;;9.70;8.10;;;;;;;;;;5131063;27;20450;-76
2023/05/25 09:01:45;;;;;;;11.47;7.83;;;;;;;;;;5138373;27;20561;-79
2023/05/25 09:04:13;;;;;;;11.67;9.50;;;;;;;;;;5138538;27;20446;-77
2023/05/25 09:06:41;;;;;;;12.57;8.70;;;;;;;;;;5136930;27;20841;-77
2023/05/25 09:09:09;;;;;;;12.80;8.77;;;;;;;;;;5125393;27;20443;-77
2023/05/25 09:11:37;;;;;;;11.10;8.60;;;;;;;;;;5132848;27;20495;-77
2023/05/25 09:14:08;;;;;;;13.77;9.57;;;;;;;;;;5131947;27;20442;-76
2023/05/25 09:16:40;;;;;;;10.60;8.33;;;;;;;;;;5138595;27;20491;-77
2023/05/25 09:19:08;;;;;;;12.73;8.10;;;;;;;;;;5139224;27;20439;-76
2023/05/25 09:21:39;;;;;;;10.03;8.40;;;;;;;;;;5119501;28;20463;-76
2023/05/25 09:24:07;;;;;;;11.27;8.40;;;;;;;;;;5118021;28;20462;-76
2023/05/25 09:26:35;;;;;;;13.17;8.70;;;;;;;;;;5120221;28;20459;-76
2023/05/25 09:29:03;;;;;;;9.47;7.70;;;;;;;;;;5120053;28;20438;-76
2023/05/25 09:31:32;;;;;;;14.90;8.27;;;;;;;;;;5120979;28;20443;-77
2023/05/25 09:34:01;;;;;;;15.83;8.27;;;;;;;;;;5125675;28;20533;-76
2023/05/25 09:36:28;;;;;;;13.93;8.80;;;;;;;;;;5127194;28;20453;-77
2023/05/25 09:38:56;;;;;;;14.53;8.73;;;;;;;;;;5122927;28;20486;-76
2023/05/25 09:41:26;;;;;;;11.93;8.00;;;;;;;;;;5124860;28;20530;-76
2023/05/25 09:43:53;;;;;;;9.43;8.20;;;;;;;;;;5120919;28;20525;-76
2023/05/25 09:46:21;;;;;;;15.17;8.00;;;;;;;;;;5121226;27;20442;-77
2023/05/25 09:48:52;;;;;;;10.83;7.90;;;;;;;;;;5129278;27;20471;-76
2023/05/25 09:51:21;;;;;;;9.23;7.80;;;;;;;;;;5127041;28;20531;-78
2023/05/25 09:53:48;;;;;;;14.10;8.37;;;;;;;;;;5124404;28;20442;-76
2023/05/25 09:56:16;;;;;;;11.10;8.00;;;;;;;;;;5128909;28;20443;-75
2023/05/25 09:58:44;;;;;;;10.37;7.70;;;;;;;;;;5127424;28;20814;-77
2023/05/25 10:01:12;;;;;;;9.33;8.10;;;;;;;;;;5122966;28;20487;-76
2023/05/25 10:03:47;;;;;;;9.43;7.27;;;;;;;;;;5126401;28;20440;-77
2023/05/25 10:06:16;;;;;;;9.30;7.67;;;;;;;;;;5128710;28;20446;-77
2023/05/25 10:08:48;;;;;;;8.63;7.40;;;;;;;;;;5124877;28;21031;-76
2023/05/25 10:11:16;;;;;;;11.40;8.43;;;;;;;;;;5122683;27;20475;-77
2023/05/25 10:13:46;;;;;;;10.70;7.90;;;;;;;;;;5141891;27;20438;-77
2023/05/25 10:16:18;;;;;;;8.47;7.47;;;;;;;;;;5144305;27;20474;-76
2023/05/25 10:18:48;;;;;;;9.00;7.20;;;;;;;;;;5140890;27;20476;-77
2023/05/25 10:21:17;;;;;;;9.33;7.20;;;;;;;;;;5121834;28;20475;-76
2023/05/25 10:23:48;;;;;;;10.10;7.33;;;;;;;;;;5126816;28;20451;-76
2023/05/25 10:26:18;;;;;;;8.77;7.90;;;;;;;;;;5124438;27;20456;-78
2023/05/25 10:28:45;;;;;;;8.10;7.07;;;;;;;;;;5121469;28;20474;-76
2023/05/25 10:31:14;;;;;;;7.97;7.17;;;;;;;;;;5119698;28;20458;-76
2023/05/25 10:33:43;;;;;;;12.40;7.83;;;;;;;;;;5124705;28;20968;-76
2023/05/25 10:36:14;;;;;;;13.93;8.07;;;;;;;;;;5128300;28;20463;-76
2023/05/25 10:38:43;;;;;;;8.50;7.50;;;;;;;;;;5122828;28;20435;-77
2023/05/25 10:41:16;;;;;;;8.20;7.40;;;;;;;;;;5118042;28;20981;-77
2023/05/25 10:43:43;;;;;;;8.37;7.40;;;;;;;;;;5116967;28;20558;-79
2023/05/25 10:46:13;;;;;;;7.63;6.93;;;;;;;;;;5116171;27;20457;-77
2023/05/25 10:48:47;;;;;;;11.60;6.60;;;;;;;;;;5114729;27;20524;-79
2023/05/25 10:51:18;;;;;;;10.77;6.90;;;;;;;;;;5114163;28;20498;-77
2023/05/25 10:53:59;;;;;;;8.60;6.70;;;;;;;;;;5114435;28;20480;-76
2023/05/25 10:56:28;;;;;;;7.30;6.60;;;;;;;;;;5115206;28;20454;-79
2023/05/25 10:58:57;;;;;;;7.73;6.83;;;;;;;;;;5114658;28;20451;-76
2023/05/25 11:01:26;;;;;;;9.80;6.67;;;;;;;;;;5115317;28;20451;-77
2023/05/25 11:03:57;;;;;;;10.03;7.07;;;;;;;;;;5115382;28;20458;-78
2023/05/25 11:06:46;;;;;;;7.80;6.57;;;;;;;;;;5116716;28;20504;-78
2023/05/25 11:09:25;;;;;;;8.93;6.87;;;;;;;;;;5114725;28;20471;-79
2023/05/25 11:12:05;;;;;;;11.07;6.67;;;;;;;;;;5124007;27;20555;-77
2023/05/25 11:14:36;;;;;;;8.57;6.90;;;;;;;;;;5129002;27;20431;-77
2023/05/25 11:17:09;;;;;;;8.30;6.27;;;;;;;;;;5130625;27;20468;-77
2023/05/25 11:19:40;;;;;;;9.57;6.50;;;;;;;;;;5128256;27;20463;-75
2023/05/25 11:22:15;;;;;;;11.10;6.07;;;;;;;;;;5130159;27;20438;-77
2023/05/25 11:27:54;;;;;;;7.70;6.90;;;;;;;;;;5043820;28;20957;-76
2023/05/25 11:30:28;;;;;;;8.13;6.80;;;;;;;;;;5128383;28;20804;-77
2023/05/25 11:32:58;;;;;;;6.87;6.13;;;;;;;;;;5136097;28;20466;-77
2023/05/25 11:35:27;;;;;;;7.93;6.70;;;;;;;;;;5124843;28;20435;-76
2023/05/25 11:37:55;;;;;;;8.03;6.90;;;;;;;;;;5125177;28;20439;-76
2023/05/25 11:40:24;;;;;;;8.60;6.17;;;;;;;;;;5140906;28;20433;-78
2023/05/25 11:42:55;;;;;;;9.17;6.47;;;;;;;;;;5143425;28;20453;-77
2023/05/25 11:45:25;;;;;;;7.07;6.23;;;;;;;;;;5133427;28;20415;-77
2023/05/25 11:48:05;;;;;;;7.37;6.17;;;;;;;;;;5132369;28;21294;-78
2023/05/25 11:50:41;;;;;;;8.07;7.00;;;;;;;;;;5136790;28;20541;-77
2023/05/25 11:53:18;;;;;;;8.83;7.20;;;;;;;;;;5152996;27;20445;-75
2023/05/25 11:55:56;;;;;;;7.63;6.63;;;;;;;;;;5153092;27;20426;-79
2023/05/25 11:58:27;;;;;;;10.80;6.53;;;;;;;;;;5150951;28;20459;-78
2023/05/25 12:00:55;;;;;;;8.00;6.77;;;;;;;;;;5145333;27;20446;-76
2023/05/25 12:03:33;;;;;;;7.60;6.37;;;;;;;;;;5139149;28;21020;-77
2023/05/25 12:06:01;;;;;;;11.00;7.80;;;;;;;;;;5139865;27;20453;-76
2023/05/25 12:08:36;;;;;;;9.90;7.33;;;;;;;;;;5141497;27;20466;-79
2023/05/25 12:11:08;;;;;;;9.00;6.90;;;;;;;;;;5140346;27;21162;-77
2023/05/25 12:13:47;;;;;;;11.70;7.37;;;;;;;;;;5139611;27;20850;-77
2023/05/25 12:16:31;;;;;;;11.60;6.87;;;;;;;;;;5137415;27;20506;-76
2023/05/25 12:19:14;;;;;;;10.53;7.20;;;;;;;;;;5131716;27;20810;-78
2023/05/25 12:21:50;;;;;;;7.67;6.97;;;;;;;;;;5120179;28;20561;-76
2023/05/25 12:24:23;;;;;;;11.20;7.80;;;;;;;;;;5120706;27;20457;-77
2023/05/25 12:26:56;;;;;;;12.73;7.10;;;;;;;;;;5121027;28;20474;-79
2023/05/25 12:29:29;;;;;;;8.67;7.10;;;;;;;;;;5122431;28;20473;-75
2023/05/25 12:32:08;;;;;;;7.77;6.80;;;;;;;;;;5121247;28;20469;-76
2023/05/25 12:34:48;;;;;;;7.53;6.53;;;;;;;;;;5121842;28;20462;-76
2023/05/25 12:37:22;;;;;;;10.50;7.20;;;;;;;;;;5122370;28;20462;-78
2023/05/25 12:39:50;;;;;;;13.07;6.63;;;;;;;;;;5119762;28;20553;-77
2023/05/25 12:42:34;;;;;;;10.47;6.77;;;;;;;;;;5124527;28;20451;-76
2023/05/25 12:45:13;;;;;;;8.00;7.03;;;;;;;;;;5121532;28;20453;-79
2023/05/25 12:47:46;;;;;;;7.63;6.70;;;;;;;;;;5117810;28;20474;-75
2023/05/25 12:50:18;;;;;;;8.97;6.80;;;;;;;;;;5116589;28;20482;-77
2023/05/25 12:52:49;;;;;;;10.50;7.13;;;;;;;;;;5120121;28;20451;-77
2023/05/25 12:55:28;;;;;;;11.40;7.37;;;;;;;;;;5123150;28;20533;-79
2023/05/25 12:57:58;;;;;;;9.00;6.30;;;;;;;;;;5116275;28;20451;-75
2023/05/25 13:00:28;;;;;;;7.73;6.93;;;;;;;;;;5116552;28;20535;-75
2023/05/25 13:02:55;;;;;;;8.70;7.07;;;;;;;;;;5115834;28;20430;-75
2023/05/25 13:05:23;;;;;;;8.17;6.63;;;;;;;;;;5117541;28;20969;-76
2023/05/25 13:07:51;;;;;;;7.33;6.40;;;;;;;;;;5117034;28;20463;-77
2023/05/25 13:10:21;;;;;;;9.40;6.90;;;;;;;;;;5115064;28;20462;-75
2023/05/25 13:12:50;;;;;;;8.90;6.40;;;;;;;;;;5114697;28;20496;-75
2023/05/25 13:15:21;;;;;;;10.77;6.93;;;;;;;;;;5114797;28;20485;-74
2023/05/25 13:17:58;;;;;;;8.87;6.93;;;;;;;;;;5117193;28;20443;-77
2023/05/25 13:20:26;;;;;;;7.27;6.57;;;;;;;;;;5141944;27;20454;-78
2023/05/25 13:22:58;;;;;;;13.80;7.07;;;;;;;;;;5145026;27;20517;-78
2023/05/25 13:25:26;;;;;;;7.77;6.00;;;;;;;;;;5147442;27;20449;-76
2023/05/25 13:27:58;;;;;;;8.40;6.27;;;;;;;;;;5146174;27;20969;-76
2023/05/25 13:30:26;;;;;;;9.83;6.47;;;;;;;;;;5146578;27;20477;-76
2023/05/25 13:32:56;;;;;;;7.73;6.93;;;;;;;;;;5142913;27;20678;-77
2023/05/25 13:35:40;;;;;;;9.20;6.73;;;;;;;;;;5142468;27;20437;-76
2023/05/25 13:38:09;;;;;;;8.27;6.63;;;;;;;;;;5143909;27;20446;-78
2023/05/25 13:40:36;;;;;;;8.53;6.10;;;;;;;;;;5139065;27;20466;-77
2023/05/25 13:43:07;;;;;;;8.80;7.20;;;;;;;;;;5145808;27;20825;-76
2023/05/25 13:45:41;;;;;;;7.60;5.67;;;;;;;;;;5150207;27;20476;-78
2023/05/25 13:48:12;;;;;;;10.07;6.57;;;;;;;;;;5147506;27;20470;-77
2023/05/25 13:50:43;;;;;;;7.80;7.00;;;;;;;;;;5148095;27;20465;-77
2023/05/25 13:53:11;;;;;;;8.43;6.73;;;;;;;;;;5149879;27;20530;-80
2023/05/25 13:55:39;;;;;;;7.27;6.13;;;;;;;;;;5148771;27;20463;-77
2023/05/25 13:58:07;;;;;;;9.53;6.40;;;;;;;;;;5149805;27;20437;-79
2023/05/25 14:00:35;;;;;;;6.77;5.97;;;;;;;;;;5147407;27;20462;-76
2023/05/25 14:03:05;;;;;;;7.10;5.67;;;;;;;;;;5145391;27;20483;-76
2023/05/25 14:05:34;;;;;;;7.57;5.90;;;;;;;;;;5144584;27;20446;-77
2023/05/25 14:08:03;;;;;;;6.93;6.17;;;;;;;;;;5145518;27;20529;-79
2023/05/25 14:10:30;;;;;;;10.93;6.30;;;;;;;;;;5143618;27;20527;-76
2023/05/25 14:12:58;;;;;;;7.97;5.97;;;;;;;;;;5143452;27;20481;-76
2023/05/25 14:15:25;;;;;;;8.87;5.90;;;;;;;;;;5145440;27;20489;-76
2023/05/25 14:17:53;;;;;;;9.60;6.70;;;;;;;;;;5145272;27;20430;-77
2023/05/25 14:20:24;;;;;;;8.20;5.90;;;;;;;;;;5127965;27;20455;-76
2023/05/25 14:22:54;;;;;;;7.10;6.13;;;;;;;;;;5123070;28;21084;-76
2023/05/25 14:25:28;;;;;;;8.13;6.70;;;;;;;;;;5122491;27;20635;-76
2023/05/25 14:27:56;;;;;;;10.03;6.10;;;;;;;;;;5121969;28;20455;-80
2023/05/25 14:30:24;;;;;;;8.43;6.10;;;;;;;;;;5118748;28;20502;-79
2023/05/25 14:32:54;;;;;;;6.30;5.70;;;;;;;;;;5115764;28;20446;-75
2023/05/25 14:35:23;;;;;;;8.43;6.07;;;;;;;;;;5116417;28;20942;-77
2023/05/25 14:37:50;;;;;;;8.87;5.83;;;;;;;;;;5115506;28;20481;-77
2023/05/25 14:40:24;;;;;;;6.93;6.27;;;;;;;;;;5113789;28;20458;-79
2023/05/25 14:42:54;;;;;;;7.50;5.57;;;;;;;;;;5113459;28;20447;-78
2023/05/25 14:45:21;;;;;;;6.87;5.90;;;;;;;;;;5113631;28;20546;-75
2023/05/25 14:47:49;;;;;;;7.77;5.43;;;;;;;;;;5115052;28;20450;-75
2023/05/25 14:50:16;;;;;;;8.70;6.23;;;;;;;;;;5117812;28;20543;-76
2023/05/25 14:52:45;;;;;;;7.10;6.10;;;;;;;;;;5120211;28;20442;-77
2023/05/25 14:55:14;;;;;;;7.17;5.77;;;;;;;;;;5120946;28;20466;-77